createdAt,value
2022-12-31T00:00:23.948Z,0.60
2022-12-31T00:02:51.825Z,0.50
2022-12-31T00:05:20.982Z,0.40
2022-12-31T00:07:48.719Z,0.90
2022-12-31T00:10:16.693Z,0.70
2022-12-31T00:12:44.398Z,0.50
2022-12-31T00:15:12.138Z,0.50
2022-12-31T00:17:40.499Z,0.50
2022-12-31T00:20:09.180Z,0.50
2022-12-31T00:22:38.440Z,0.33
2022-12-31T00:25:07.385Z,0.40
2022-12-31T00:27:35.136Z,0.40
2022-12-31T00:30:04.981Z,0.40
2022-12-31T00:32:32.942Z,0.43
2022-12-31T00:35:00.604Z,0.50
2022-12-31T00:37:28.347Z,0.47
2022-12-31T00:39:57.495Z,0.47
2022-12-31T00:42:25.509Z,0.50
2022-12-31T00:44:53.169Z,0.40
2022-12-31T00:47:20.903Z,0.33
2022-12-31T00:49:48.799Z,0.33
2022-12-31T00:52:18.263Z,0.40
2022-12-31T00:54:45.960Z,0.30
2022-12-31T00:57:15.306Z,0.23
2022-12-31T00:59:43.027Z,0.30
2022-12-31T01:02:10.960Z,0.20
2022-12-31T01:04:38.857Z,0.30
2022-12-31T01:07:06.537Z,0.20
2022-12-31T01:09:34.309Z,0.20
2022-12-31T01:12:02.076Z,0.30
2022-12-31T01:14:32.642Z,0.30
2022-12-31T01:17:00.368Z,0.30
2022-12-31T01:19:30.423Z,0.30
2022-12-31T01:21:58.644Z,0.20
2022-12-31T01:24:26.528Z,0.20
2022-12-31T01:26:57.581Z,0.20
2022-12-31T01:29:25.719Z,0.20
2022-12-31T01:31:54.878Z,0.20
2022-12-31T01:34:22.660Z,0.20
2022-12-31T01:36:50.389Z,0.20
2022-12-31T01:39:18.223Z,0.40
2022-12-31T01:41:48.032Z,0.30
2022-12-31T01:44:53.924Z,0.20
2022-12-31T01:47:34.050Z,0.20
2022-12-31T01:50:08.477Z,0.20
2022-12-31T01:52:39.487Z,0.20
2022-12-31T01:55:13.328Z,0.20
2022-12-31T01:57:42.101Z,0.20
2022-12-31T02:00:10.997Z,0.20
2022-12-31T02:02:40.256Z,0.20
2022-12-31T02:05:15.039Z,0.30
2022-12-31T02:07:43.300Z,0.10
2022-12-31T02:10:11.170Z,0.20
2022-12-31T02:12:39.029Z,0.20
2022-12-31T02:15:08.014Z,0.20
2022-12-31T02:17:47.264Z,0.20
2022-12-31T02:20:47.483Z,0.17
2022-12-31T02:23:33.717Z,0.20
2022-12-31T02:26:28.824Z,0.20
2022-12-31T02:29:29.019Z,0.33
2022-12-31T02:32:01.375Z,0.20
2022-12-31T02:34:34.589Z,0.10
2022-12-31T02:37:07.367Z,0.20
2022-12-31T02:39:35.702Z,0.20
2022-12-31T02:42:04.350Z,0.20
2022-12-31T02:44:35.296Z,0.20
2022-12-31T02:47:18.228Z,0.30
2022-12-31T02:49:59.858Z,0.30
2022-12-31T02:52:38.938Z,0.40
2022-12-31T02:55:15.500Z,0.20
2022-12-31T02:57:52.621Z,0.20
2022-12-31T03:00:38.914Z,0.40
2022-12-31T03:03:10.057Z,0.20
2022-12-31T03:05:41.789Z,0.20
2022-12-31T03:08:10.053Z,0.27
2022-12-31T03:10:38.144Z,0.30
2022-12-31T03:13:04.890Z,0.30
2022-12-31T03:15:34.603Z,0.17
2022-12-31T03:18:04.769Z,0.20
2022-12-31T03:20:53.819Z,0.20
2022-12-31T03:23:24.816Z,0.20
2022-12-31T03:25:53.251Z,0.20
2022-12-31T03:28:23.722Z,0.20
2022-12-31T03:30:53.996Z,0.20
2022-12-31T03:33:22.640Z,0.20
2022-12-31T03:35:51.923Z,0.20
2022-12-31T03:38:20.405Z,0.20
2022-12-31T03:40:50.545Z,0.40
2022-12-31T03:43:19.302Z,0.30
2022-12-31T03:45:50.155Z,0.30
2022-12-31T03:48:18.427Z,0.20
2022-12-31T03:50:46.183Z,0.20
2022-12-31T03:53:15.585Z,0.20
2022-12-31T03:55:43.416Z,0.20
2022-12-31T03:58:11.130Z,0.20
2022-12-31T04:00:38.860Z,0.30
2022-12-31T04:03:06.719Z,0.20
2022-12-31T04:05:34.723Z,0.30
2022-12-31T04:08:03.020Z,0.20
2022-12-31T04:10:32.217Z,0.20
2022-12-31T04:13:02.438Z,0.20
2022-12-31T04:15:30.331Z,0.20
2022-12-31T04:17:58.169Z,0.20
2022-12-31T04:20:25.914Z,0.20
2022-12-31T04:22:53.648Z,0.20
2022-12-31T04:25:21.378Z,0.10
2022-12-31T04:27:50.439Z,0.30
2022-12-31T04:30:18.149Z,0.20
2022-12-31T04:32:45.891Z,0.20
2022-12-31T04:35:13.645Z,0.20
2022-12-31T04:37:41.366Z,0.20
2022-12-31T04:40:10.227Z,0.20
2022-12-31T04:42:38.553Z,0.20
2022-12-31T04:45:09.013Z,0.30
2022-12-31T04:47:36.761Z,0.27
2022-12-31T04:50:05.021Z,0.30
2022-12-31T04:52:35.783Z,0.40
2022-12-31T04:55:08.851Z,0.33
2022-12-31T04:57:36.519Z,0.30
2022-12-31T05:00:04.994Z,0.30
2022-12-31T05:02:34.294Z,0.30
2022-12-31T05:05:02.068Z,0.40
2022-12-31T05:07:29.754Z,0.47
2022-12-31T05:09:57.499Z,0.57
2022-12-31T05:12:25.222Z,0.40
2022-12-31T05:14:52.952Z,0.30
2022-12-31T05:17:22.939Z,0.40
2022-12-31T05:19:52.039Z,0.30
2022-12-31T05:22:31.999Z,0.20
2022-12-31T05:25:00.549Z,0.30
2022-12-31T05:27:31.133Z,0.30
2022-12-31T05:29:59.120Z,0.30
2022-12-31T05:32:26.869Z,0.30
2022-12-31T05:34:55.969Z,0.30
2022-12-31T05:37:23.698Z,0.30
2022-12-31T05:39:51.508Z,0.20
2022-12-31T05:42:19.261Z,0.30
2022-12-31T05:44:47.036Z,0.30
2022-12-31T05:47:15.538Z,0.30
2022-12-31T05:49:43.315Z,0.30
2022-12-31T05:52:12.424Z,0.30
2022-12-31T05:54:40.199Z,0.30
2022-12-31T05:57:08.383Z,0.23
2022-12-31T05:59:36.107Z,0.23
2022-12-31T06:02:03.881Z,0.20
2022-12-31T06:04:31.606Z,0.30
2022-12-31T06:06:59.305Z,0.30
2022-12-31T06:09:28.479Z,0.40
2022-12-31T06:12:42.883Z,0.37
2022-12-31T06:15:11.276Z,0.40
2022-12-31T06:17:39.409Z,0.40
2022-12-31T06:20:12.843Z,0.30
2022-12-31T06:22:40.912Z,0.30
2022-12-31T06:25:11.043Z,0.60
2022-12-31T06:27:38.838Z,0.40
2022-12-31T06:30:07.944Z,0.30
2022-12-31T06:32:35.965Z,0.40
2022-12-31T06:35:03.775Z,0.40
2022-12-31T06:37:31.554Z,0.40
2022-12-31T06:39:59.655Z,0.40
2022-12-31T06:42:30.801Z,0.40
2022-12-31T06:44:58.955Z,0.30
2022-12-31T06:47:27.161Z,0.30
2022-12-31T06:49:54.919Z,0.40
2022-12-31T06:52:22.915Z,0.40
2022-12-31T06:54:51.166Z,0.40
2022-12-31T06:57:19.543Z,0.40
2022-12-31T06:59:49.452Z,0.30
2022-12-31T07:02:32.019Z,0.40
2022-12-31T07:05:28.114Z,0.20
2022-12-31T07:08:06.958Z,0.30
2022-12-31T07:10:43.919Z,0.30
2022-12-31T07:13:26.450Z,0.40
2022-12-31T07:16:19.940Z,0.30
2022-12-31T07:18:51.710Z,0.30
2022-12-31T07:21:31.747Z,0.40
2022-12-31T07:24:00.119Z,0.30
2022-12-31T07:26:46.259Z,0.37
2022-12-31T07:29:25.317Z,0.30
2022-12-31T07:32:05.944Z,0.30
2022-12-31T07:34:43.088Z,0.30
2022-12-31T07:37:18.365Z,0.40
2022-12-31T07:39:54.470Z,0.40
2022-12-31T07:42:28.200Z,0.40
2022-12-31T07:45:02.208Z,0.40
2022-12-31T07:47:31.869Z,0.30
2022-12-31T07:50:00.140Z,0.30
2022-12-31T07:52:28.566Z,0.30
2022-12-31T07:54:56.278Z,0.30
2022-12-31T07:57:28.271Z,0.80
2022-12-31T08:00:04.524Z,0.30
2022-12-31T08:02:55.017Z,0.60
2022-12-31T08:05:30.859Z,0.53
2022-12-31T08:08:07.063Z,0.50
2022-12-31T08:10:40.929Z,0.40
2022-12-31T08:13:12.097Z,0.50
2022-12-31T08:15:41.037Z,0.20
2022-12-31T08:18:11.622Z,0.30
2022-12-31T08:20:49.840Z,0.30
2022-12-31T08:23:26.851Z,0.20
2022-12-31T08:26:07.556Z,0.30
2022-12-31T08:28:51.648Z,0.40
2022-12-31T08:31:22.657Z,0.20
2022-12-31T08:34:02.111Z,0.20
2022-12-31T08:36:42.573Z,0.27
2022-12-31T08:39:18.316Z,0.60
2022-12-31T08:41:49.089Z,0.40
2022-12-31T08:44:29.335Z,0.50
2022-12-31T08:47:03.697Z,0.47
2022-12-31T08:49:35.328Z,0.30
2022-12-31T08:52:04.996Z,0.40
2022-12-31T08:54:33.116Z,0.40
2022-12-31T08:57:10.580Z,0.30
2022-12-31T08:59:48.279Z,0.40
2022-12-31T09:02:46.181Z,0.40
2022-12-31T09:05:23.143Z,0.30
2022-12-31T09:08:01.735Z,0.40
2022-12-31T09:10:33.264Z,0.50
2022-12-31T09:13:12.376Z,0.40
2022-12-31T09:15:44.854Z,0.40
2022-12-31T09:18:14.446Z,0.60
2022-12-31T09:20:44.728Z,0.40
2022-12-31T09:23:13.865Z,0.30
2022-12-31T09:25:52.654Z,0.60
2022-12-31T09:28:32.907Z,0.30
2022-12-31T09:31:12.543Z,0.30
2022-12-31T09:33:48.205Z,0.70
2022-12-31T09:36:23.221Z,0.40
2022-12-31T09:38:56.302Z,0.30
2022-12-31T09:41:49.521Z,0.30
2022-12-31T09:44:54.130Z,0.27
2022-12-31T09:48:06.638Z,0.33
2022-12-31T09:50:47.494Z,0.30
2022-12-31T09:53:36.606Z,0.20
2022-12-31T09:56:14.986Z,0.30
2022-12-31T09:58:49.776Z,0.30
2022-12-31T10:01:39.123Z,0.33
2022-12-31T10:04:40.681Z,0.30
2022-12-31T10:07:25.918Z,0.20
2022-12-31T10:10:07.612Z,0.30
2022-12-31T10:13:02.616Z,0.40
2022-12-31T10:15:44.019Z,0.30
2022-12-31T10:18:25.463Z,0.30
2022-12-31T10:21:06.609Z,0.30
2022-12-31T10:23:56.328Z,0.30
2022-12-31T10:26:47.249Z,0.40
2022-12-31T10:29:32.509Z,0.40
2022-12-31T10:32:16.260Z,0.30
2022-12-31T10:34:54.616Z,0.30
2022-12-31T10:37:30.007Z,0.30
2022-12-31T10:40:11.906Z,0.30
2022-12-31T10:43:18.112Z,0.30
2022-12-31T10:46:23.080Z,0.50
2022-12-31T10:49:25.952Z,0.40
2022-12-31T10:52:42.124Z,0.30
2022-12-31T10:55:47.860Z,0.40
2022-12-31T10:59:09.572Z,0.50
2022-12-31T11:01:49.728Z,0.40
2022-12-31T11:04:56.146Z,0.40
2022-12-31T11:07:56.788Z,0.40
2022-12-31T11:10:56.150Z,0.40
2022-12-31T11:14:03.205Z,0.40
2022-12-31T11:16:54.315Z,4.83
2022-12-31T11:19:29.810Z,0.97
2022-12-31T11:22:20.112Z,1.73
2022-12-31T11:25:06.873Z,1.10
2022-12-31T11:28:10.061Z,0.50
2022-12-31T11:30:47.622Z,0.50
2022-12-31T11:33:34.162Z,0.67
2022-12-31T11:36:14.783Z,0.50
2022-12-31T11:38:51.501Z,0.50
2022-12-31T11:41:29.203Z,0.60
2022-12-31T11:44:03.987Z,0.60
2022-12-31T11:46:48.503Z,0.70
2022-12-31T11:49:31.005Z,0.50
2022-12-31T11:52:21.338Z,0.50
2022-12-31T11:55:24.493Z,0.50
2022-12-31T11:57:53.393Z,0.40
2022-12-31T12:00:23.822Z,0.35
2022-12-31T12:02:54.825Z,0.40
2022-12-31T12:05:25.768Z,0.60
2022-12-31T12:07:54.795Z,0.40
2022-12-31T12:10:31.951Z,0.40
2022-12-31T12:13:12.507Z,0.70
2022-12-31T12:15:43.491Z,0.40
2022-12-31T12:18:24.742Z,0.40
2022-12-31T12:20:55.897Z,0.40
2022-12-31T12:23:25.598Z,0.40
2022-12-31T12:25:54.143Z,0.60
2022-12-31T12:28:23.799Z,0.40
2022-12-31T12:30:57.362Z,0.50
2022-12-31T12:33:25.458Z,0.40
2022-12-31T12:35:54.514Z,0.50
2022-12-31T12:38:24.314Z,0.60
2022-12-31T12:40:58.226Z,0.47
2022-12-31T12:43:28.290Z,0.45
2022-12-31T12:46:00.496Z,0.50
2022-12-31T12:48:35.600Z,0.60
2022-12-31T12:51:15.037Z,0.40
2022-12-31T12:53:50.094Z,0.40
2022-12-31T12:56:24.849Z,0.47
2022-12-31T12:59:08.479Z,0.47
2022-12-31T13:01:44.088Z,0.38
2022-12-31T13:04:43.779Z,0.50
2022-12-31T13:07:25.656Z,0.38
2022-12-31T13:10:09.956Z,0.45
2022-12-31T13:13:22.852Z,0.50
2022-12-31T13:15:40.455Z,0.40
2022-12-31T13:18:16.716Z,0.50
2022-12-31T13:20:51.121Z,0.40
2022-12-31T13:23:27.567Z,0.40
2022-12-31T13:26:05.062Z,0.60
2022-12-31T13:28:34.511Z,0.50
2022-12-31T13:31:07.365Z,0.38
2022-12-31T13:33:40.126Z,0.50
2022-12-31T13:36:11.683Z,0.60
2022-12-31T13:38:44.442Z,0.60
2022-12-31T13:41:15.892Z,0.80
2022-12-31T13:43:50.971Z,0.60
2022-12-31T13:46:25.282Z,0.60
2022-12-31T13:48:57.138Z,0.60
2022-12-31T13:51:39.162Z,0.60
2022-12-31T13:54:19.629Z,0.50
2022-12-31T13:56:51.504Z,0.70
2022-12-31T13:59:23.622Z,1.00
2022-12-31T14:01:55.461Z,0.90
2022-12-31T14:04:28.878Z,1.00
2022-12-31T14:07:01.830Z,0.80
2022-12-31T14:09:34.270Z,1.00
2022-12-31T14:12:18.624Z,0.77
2022-12-31T14:14:52.371Z,0.80
2022-12-31T14:17:27.610Z,0.50
2022-12-31T14:20:05.350Z,0.60
2022-12-31T14:22:41.056Z,0.70
2022-12-31T14:25:19.977Z,1.03
2022-12-31T14:27:49.578Z,1.40
2022-12-31T14:30:20.612Z,1.27
2022-12-31T14:33:07.732Z,0.97
2022-12-31T14:35:53.207Z,1.20
2022-12-31T14:38:34.786Z,1.30
2022-12-31T14:41:20.245Z,1.20
2022-12-31T14:44:04.358Z,1.30
2022-12-31T14:46:39.991Z,1.00
2022-12-31T14:49:34.470Z,1.20
2022-12-31T14:52:09.749Z,1.30
2022-12-31T14:54:38.820Z,1.17
2022-12-31T14:57:24.521Z,1.13
2022-12-31T14:59:55.111Z,1.30
2022-12-31T15:02:31.273Z,1.17
2022-12-31T15:05:17.149Z,1.83
2022-12-31T15:07:54.401Z,1.60
2022-12-31T15:10:27.575Z,1.87
2022-12-31T15:13:06.178Z,2.20
2022-12-31T15:16:06.983Z,1.90
2022-12-31T15:18:49.134Z,1.40
2022-12-31T15:21:35.276Z,1.90
2022-12-31T15:24:13.326Z,1.50
2022-12-31T15:26:49.369Z,1.87
2022-12-31T15:29:28.307Z,1.43
2022-12-31T15:31:57.607Z,1.23
2022-12-31T15:34:27.675Z,2.17
2022-12-31T15:36:57.980Z,1.40
2022-12-31T15:39:40.200Z,1.80
2022-12-31T15:42:37.706Z,2.87
2022-12-31T15:45:14.511Z,2.40
2022-12-31T15:47:46.852Z,2.43
2022-12-31T15:50:18.203Z,2.97
2022-12-31T15:52:48.727Z,2.73
2022-12-31T15:55:26.697Z,1.90
2022-12-31T15:58:00.157Z,2.20
2022-12-31T16:00:44.450Z,1.83
2022-12-31T16:03:22.337Z,2.93
2022-12-31T16:05:50.482Z,2.73
2022-12-31T16:08:22.530Z,2.27
2022-12-31T16:10:50.485Z,2.33
2022-12-31T16:13:24.561Z,2.00
2022-12-31T16:15:58.861Z,2.00
2022-12-31T16:18:26.689Z,2.07
2022-12-31T16:20:54.411Z,2.50
2022-12-31T16:23:24.363Z,2.63
2022-12-31T16:25:54.086Z,2.40
2022-12-31T16:28:24.544Z,1.73
2022-12-31T16:31:01.393Z,2.27
2022-12-31T16:33:29.424Z,2.80
2022-12-31T16:35:59.100Z,2.80
2022-12-31T16:38:33.649Z,2.80
2022-12-31T16:41:12.506Z,2.90
2022-12-31T16:43:41.667Z,2.83
2022-12-31T16:46:16.857Z,2.20
2022-12-31T16:48:48.354Z,2.33
2022-12-31T16:51:20.539Z,2.60
2022-12-31T16:53:49.440Z,2.90
2022-12-31T16:56:25.180Z,2.27
2022-12-31T16:59:01.267Z,2.37
2022-12-31T17:01:33.745Z,3.07
2022-12-31T17:04:05.738Z,2.20
2022-12-31T17:06:33.865Z,2.27
2022-12-31T17:09:14.914Z,2.57
2022-12-31T17:11:50.381Z,3.83
2022-12-31T17:14:19.840Z,3.00
2022-12-31T17:17:03.640Z,1.83
2022-12-31T17:19:43.420Z,2.40
2022-12-31T17:22:17.251Z,2.77
2022-12-31T17:24:45.313Z,3.50
2022-12-31T17:27:13.121Z,3.70
2022-12-31T17:29:40.784Z,4.03
2022-12-31T17:32:30.123Z,5.67
2022-12-31T17:34:57.758Z,5.63
2022-12-31T17:37:28.535Z,5.23
2022-12-31T17:40:17.081Z,5.90
2022-12-31T17:42:47.441Z,6.30
2022-12-31T17:45:20.882Z,6.13
2022-12-31T17:47:54.036Z,5.50
2022-12-31T17:50:24.791Z,6.00
2022-12-31T17:52:56.808Z,5.13
2022-12-31T17:55:24.637Z,7.23
2022-12-31T17:57:55.193Z,3.73
2022-12-31T18:00:25.139Z,4.53
2022-12-31T18:02:54.463Z,4.43
2022-12-31T18:05:23.984Z,5.77
2022-12-31T18:07:51.779Z,5.27
2022-12-31T18:10:21.233Z,5.00
2022-12-31T18:12:50.385Z,7.40
2022-12-31T18:15:20.033Z,6.97
2022-12-31T18:17:47.753Z,7.23
2022-12-31T18:20:17.114Z,6.50
2022-12-31T18:22:46.003Z,5.00
2022-12-31T18:25:17.710Z,5.87
2022-12-31T18:27:45.423Z,10.30
2022-12-31T18:30:16.414Z,7.20
2022-12-31T18:32:45.155Z,5.30
2022-12-31T18:35:40.765Z,5.30
2022-12-31T18:38:07.173Z,4.10
2022-12-31T18:40:34.935Z,5.03
2022-12-31T18:43:05.101Z,3.27
2022-12-31T18:45:33.078Z,3.53
2022-12-31T18:48:00.835Z,3.30
2022-12-31T18:50:29.882Z,4.13
2022-12-31T18:52:57.545Z,4.43
2022-12-31T18:55:29.229Z,3.97
2022-12-31T18:57:56.817Z,4.80
2022-12-31T19:00:24.809Z,3.73
2022-12-31T19:02:52.469Z,3.27
2022-12-31T19:05:25.376Z,4.07
2022-12-31T19:07:54.898Z,3.83
2022-12-31T19:10:23.172Z,3.73
2022-12-31T19:12:51.414Z,3.37
2022-12-31T19:15:29.625Z,4.17
2022-12-31T19:17:57.393Z,4.80
2022-12-31T19:20:25.219Z,6.27
2022-12-31T19:22:54.236Z,5.60
2022-12-31T19:25:24.345Z,4.60
2022-12-31T19:27:52.489Z,5.53
2022-12-31T19:30:23.734Z,5.20
2022-12-31T19:32:51.811Z,5.30
2022-12-31T19:35:20.556Z,6.30
2022-12-31T19:37:50.771Z,5.20
2022-12-31T19:40:22.561Z,6.00
2022-12-31T19:42:51.116Z,5.33
2022-12-31T19:45:20.194Z,5.13
2022-12-31T19:47:48.068Z,4.77
2022-12-31T19:50:18.034Z,4.97
2022-12-31T19:52:47.086Z,5.07
2022-12-31T19:55:16.846Z,5.23
2022-12-31T19:57:46.719Z,4.63
2022-12-31T20:00:17.824Z,5.67
2022-12-31T20:02:48.152Z,5.30
2022-12-31T20:05:19.312Z,6.03
2022-12-31T20:07:47.212Z,4.90
2022-12-31T20:10:15.651Z,4.40
2022-12-31T20:12:44.712Z,4.53
2022-12-31T20:15:13.995Z,3.90
2022-12-31T20:17:41.604Z,5.33
2022-12-31T20:20:09.887Z,5.40
2022-12-31T20:22:37.509Z,5.73
2022-12-31T20:25:05.937Z,4.97
2022-12-31T20:27:33.879Z,4.53
2022-12-31T20:30:01.681Z,4.87
2022-12-31T20:32:30.694Z,4.90
2022-12-31T20:34:58.392Z,5.60
2022-12-31T20:37:25.997Z,5.93
2022-12-31T20:39:53.688Z,5.50
2022-12-31T20:42:21.400Z,6.07
2022-12-31T20:44:49.067Z,6.53
2022-12-31T20:47:16.812Z,7.20
2022-12-31T20:50:10.378Z,6.10
2022-12-31T20:52:34.076Z,5.53
2022-12-31T20:55:01.747Z,5.67
2022-12-31T20:57:33.595Z,5.40
2022-12-31T21:00:01.884Z,5.70
2022-12-31T21:02:40.837Z,4.17
2022-12-31T21:05:11.543Z,5.20
2022-12-31T21:07:39.415Z,6.10
2022-12-31T21:10:07.780Z,5.27
2022-12-31T21:12:44.454Z,4.90
2022-12-31T21:15:13.346Z,4.20
2022-12-31T21:17:41.016Z,4.80
2022-12-31T21:20:11.425Z,4.83
2022-12-31T21:22:39.486Z,6.30
2022-12-31T21:25:07.774Z,6.47
2022-12-31T21:27:37.019Z,7.60
2022-12-31T21:30:20.779Z,6.10
2022-12-31T21:32:48.849Z,6.03
2022-12-31T21:38:07.406Z,3.80
2022-12-31T21:40:35.098Z,4.37
2022-12-31T21:43:02.778Z,5.07
2022-12-31T21:45:30.454Z,5.87
2022-12-31T21:48:17.476Z,5.43
2022-12-31T21:50:48.472Z,6.50
2022-12-31T21:53:20.332Z,5.70
2022-12-31T21:56:11.500Z,5.63
2022-12-31T21:58:40.935Z,5.20
2022-12-31T22:01:31.623Z,4.80
2022-12-31T22:03:59.377Z,4.70
2022-12-31T22:06:28.538Z,4.40
2022-12-31T22:08:57.849Z,6.80
2022-12-31T22:11:27.960Z,7.33
2022-12-31T22:13:56.578Z,8.20
2022-12-31T22:16:24.698Z,6.93
2022-12-31T22:18:52.352Z,7.80
2022-12-31T22:21:22.043Z,7.50
2022-12-31T22:23:52.769Z,6.83
2022-12-31T22:26:22.475Z,6.83
2022-12-31T22:28:50.699Z,6.73
2022-12-31T22:31:21.384Z,6.27
2022-12-31T22:33:49.605Z,6.60
2022-12-31T22:36:20.265Z,5.70
2022-12-31T22:38:48.907Z,6.93
2022-12-31T22:41:20.317Z,8.00
2022-12-31T22:43:49.957Z,10.10
2022-12-31T22:46:19.693Z,7.50
2022-12-31T22:48:47.888Z,7.17
2022-12-31T22:51:16.767Z,8.80
2022-12-31T22:53:45.124Z,11.87
2022-12-31T22:56:14.724Z,11.97
2022-12-31T22:58:44.724Z,15.20
2022-12-31T23:01:17.542Z,19.93
2022-12-31T23:03:45.667Z,33.13
2022-12-31T23:06:13.880Z,77.70
2022-12-31T23:08:41.665Z,120.70
2022-12-31T23:11:09.587Z,151.20
2022-12-31T23:13:57.348Z,148.53
2022-12-31T23:16:45.757Z,150.70
2022-12-31T23:19:32.123Z,138.10
2022-12-31T23:22:17.285Z,118.27
2022-12-31T23:24:45.172Z,118.87
2022-12-31T23:27:13.242Z,105.97
2022-12-31T23:29:47.100Z,99.13
2022-12-31T23:32:16.998Z,82.87
2022-12-31T23:34:45.673Z,73.37
2022-12-31T23:37:13.627Z,55.10
2022-12-31T23:39:41.732Z,64.23
2022-12-31T23:42:09.604Z,66.47
2022-12-31T23:44:37.341Z,61.53
2022-12-31T23:47:05.101Z,64.83
2022-12-31T23:49:34.269Z,60.80
2022-12-31T23:52:01.929Z,58.87
2022-12-31T23:54:29.694Z,59.57
2022-12-31T23:56:57.358Z,60.27
2022-12-31T23:59:25.094Z,57.70
